sensor_id;sensor_type;location;lat;lon;timestamp;P1;durP1;ratioP1;P2;durP2;ratioP2
58101;SDS011;52034;51.926;6.320;2022-08-03T00:00:42;6.15;;;3.30;;
58101;SDS011;52034;51.926;6.320;2022-08-03T00:02:01;8.45;;;3.45;;
58101;SDS011;52034;51.926;6.320;2022-08-03T00:03:21;6.85;;;3.20;;
58101;SDS011;52034;51.926;6.320;2022-08-03T00:04:41;5.65;;;3.35;;
58101;SDS011;52034;51.926;6.320;2022-08-03T00:06:00;9.32;;;3.60;;
58101;SDS011;52034;51.926;6.320;2022-08-03T00:07:19;5.32;;;3.60;;
58101;SDS011;52034;51.926;6.320;2022-08-03T00:08:38;5.43;;;3.53;;
58101;SDS011;52034;51.926;6.320;2022-08-03T00:09:57;6.05;;;3.45;;
58101;SDS011;52034;51.926;6.320;2022-08-03T00:11:17;6.90;;;3.70;;
58101;SDS011;52034;51.926;6.320;2022-08-03T00:12:36;5.03;;;3.30;;
58101;SDS011;52034;51.926;6.320;2022-08-03T00:13:55;8.13;;;3.35;;
58101;SDS011;52034;51.926;6.320;2022-08-03T00:15:14;7.82;;;3.75;;
58101;SDS011;52034;51.926;6.320;2022-08-03T00:16:34;10.18;;;3.50;;
58101;SDS011;52034;51.926;6.320;2022-08-03T00:17:53;4.57;;;3.47;;
58101;SDS011;52034;51.926;6.320;2022-08-03T00:19:12;5.97;;;3.25;;
58101;SDS011;52034;51.926;6.320;2022-08-03T00:20:31;8.82;;;3.88;;
58101;SDS011;52034;51.926;6.320;2022-08-03T00:21:50;6.28;;;3.20;;
58101;SDS011;52034;51.926;6.320;2022-08-03T00:23:10;9.25;;;3.50;;
58101;SDS011;52034;51.926;6.320;2022-08-03T00:24:29;7.18;;;3.60;;
58101;SDS011;52034;51.926;6.320;2022-08-03T00:25:49;6.30;;;3.67;;
58101;SDS011;52034;51.926;6.320;2022-08-03T00:27:08;7.13;;;3.17;;
58101;SDS011;52034;51.926;6.320;2022-08-03T00:28:27;6.15;;;3.22;;
58101;SDS011;52034;51.926;6.320;2022-08-03T00:29:46;6.80;;;3.15;;
58101;SDS011;52034;51.926;6.320;2022-08-03T00:31:05;6.93;;;3.40;;
58101;SDS011;52034;51.926;6.320;2022-08-03T00:32:25;5.65;;;3.53;;
58101;SDS011;52034;51.926;6.320;2022-08-03T00:33:44;6.60;;;4.05;;
58101;SDS011;52034;51.926;6.320;2022-08-03T00:35:03;8.52;;;4.00;;
58101;SDS011;52034;51.926;6.320;2022-08-03T00:36:22;8.95;;;4.03;;
58101;SDS011;52034;51.926;6.320;2022-08-03T00:37:41;8.98;;;4.18;;
58101;SDS011;52034;51.926;6.320;2022-08-03T00:39:00;10.90;;;4.40;;
58101;SDS011;52034;51.926;6.320;2022-08-03T00:40:19;10.25;;;3.92;;
58101;SDS011;52034;51.926;6.320;2022-08-03T00:41:39;7.28;;;4.18;;
58101;SDS011;52034;51.926;6.320;2022-08-03T00:42:59;6.75;;;3.42;;
58101;SDS011;52034;51.926;6.320;2022-08-03T00:44:19;7.68;;;3.58;;
58101;SDS011;52034;51.926;6.320;2022-08-03T00:45:39;11.65;;;4.25;;
58101;SDS011;52034;51.926;6.320;2022-08-03T00:46:59;6.60;;;3.60;;
58101;SDS011;52034;51.926;6.320;2022-08-03T00:48:18;5.30;;;3.80;;
58101;SDS011;52034;51.926;6.320;2022-08-03T00:49:38;7.93;;;3.60;;
58101;SDS011;52034;51.926;6.320;2022-08-03T00:50:57;4.65;;;3.53;;
58101;SDS011;52034;51.926;6.320;2022-08-03T00:52:16;5.30;;;3.72;;
58101;SDS011;52034;51.926;6.320;2022-08-03T00:53:36;6.20;;;3.67;;
58101;SDS011;52034;51.926;6.320;2022-08-03T00:54:55;6.65;;;3.50;;
58101;SDS011;52034;51.926;6.320;2022-08-03T00:56:14;5.43;;;3.88;;
58101;SDS011;52034;51.926;6.320;2022-08-03T00:57:34;9.88;;;4.00;;
58101;SDS011;52034;51.926;6.320;2022-08-03T00:58:53;8.18;;;4.00;;
58101;SDS011;52034;51.926;6.320;2022-08-03T01:00:17;5.93;;;3.78;;
58101;SDS011;52034;51.926;6.320;2022-08-03T01:01:37;9.50;;;3.83;;
58101;SDS011;52034;51.926;6.320;2022-08-03T01:02:57;8.88;;;3.90;;
58101;SDS011;52034;51.926;6.320;2022-08-03T01:04:16;6.95;;;4.18;;
58101;SDS011;52034;51.926;6.320;2022-08-03T01:05:42;7.40;;;3.85;;
58101;SDS011;52034;51.926;6.320;2022-08-03T01:07:16;5.78;;;3.78;;
58101;SDS011;52034;51.926;6.320;2022-08-03T01:10:16;11.40;;;4.53;;
58101;SDS011;52034;51.926;6.320;2022-08-03T01:14:48;9.05;;;3.95;;
58101;SDS011;52034;51.926;6.320;2022-08-03T01:16:25;7.00;;;4.30;;
58101;SDS011;52034;51.926;6.320;2022-08-03T01:18:02;8.27;;;4.28;;
58101;SDS011;52034;51.926;6.320;2022-08-03T01:19:37;9.43;;;4.28;;
58101;SDS011;52034;51.926;6.320;2022-08-03T01:21:08;10.30;;;4.05;;
58101;SDS011;52034;51.926;6.320;2022-08-03T01:22:35;9.68;;;4.30;;
58101;SDS011;52034;51.926;6.320;2022-08-03T01:24:03;10.02;;;4.38;;
58101;SDS011;52034;51.926;6.320;2022-08-03T01:25:48;10.20;;;4.38;;
58101;SDS011;52034;51.926;6.320;2022-08-03T01:27:22;6.32;;;4.20;;
58101;SDS011;52034;51.926;6.320;2022-08-03T01:30:24;7.38;;;4.47;;
58101;SDS011;52034;51.926;6.320;2022-08-03T01:31:47;7.75;;;4.05;;
58101;SDS011;52034;51.926;6.320;2022-08-03T01:33:23;6.57;;;3.53;;
58101;SDS011;52034;51.926;6.320;2022-08-03T01:34:58;16.98;;;4.13;;
58101;SDS011;52034;51.926;6.320;2022-08-03T01:36:21;12.90;;;4.32;;
58101;SDS011;52034;51.926;6.320;2022-08-03T01:37:42;9.45;;;4.20;;
58101;SDS011;52034;51.926;6.320;2022-08-03T01:39:05;5.75;;;4.20;;
58101;SDS011;52034;51.926;6.320;2022-08-03T01:40:29;6.38;;;3.70;;
58101;SDS011;52034;51.926;6.320;2022-08-03T01:41:52;10.98;;;4.22;;
58101;SDS011;52034;51.926;6.320;2022-08-03T01:43:24;7.53;;;4.00;;
58101;SDS011;52034;51.926;6.320;2022-08-03T01:44:45;6.38;;;4.00;;
58101;SDS011;52034;51.926;6.320;2022-08-03T01:46:06;9.20;;;3.88;;
58101;SDS011;52034;51.926;6.320;2022-08-03T01:47:26;8.23;;;4.18;;
58101;SDS011;52034;51.926;6.320;2022-08-03T01:48:47;6.90;;;4.03;;
58101;SDS011;52034;51.926;6.320;2022-08-03T01:50:06;7.13;;;3.92;;
58101;SDS011;52034;51.926;6.320;2022-08-03T01:51:26;7.20;;;3.53;;
58101;SDS011;52034;51.926;6.320;2022-08-03T01:52:46;6.03;;;3.80;;
58101;SDS011;52034;51.926;6.320;2022-08-03T01:54:05;5.05;;;4.25;;
58101;SDS011;52034;51.926;6.320;2022-08-03T01:55:26;10.55;;;4.10;;
58101;SDS011;52034;51.926;6.320;2022-08-03T01:56:45;6.43;;;4.18;;
58101;SDS011;52034;51.926;6.320;2022-08-03T01:58:06;6.18;;;3.63;;
58101;SDS011;52034;51.926;6.320;2022-08-03T01:59:25;7.20;;;4.32;;
58101;SDS011;52034;51.926;6.320;2022-08-03T02:00:48;10.13;;;4.28;;
58101;SDS011;52034;51.926;6.320;2022-08-03T02:02:07;9.15;;;4.45;;
58101;SDS011;52034;51.926;6.320;2022-08-03T02:03:31;8.55;;;4.57;;
58101;SDS011;52034;51.926;6.320;2022-08-03T02:04:52;8.77;;;4.47;;
58101;SDS011;52034;51.926;6.320;2022-08-03T02:06:11;7.40;;;4.25;;
58101;SDS011;52034;51.926;6.320;2022-08-03T02:07:31;7.78;;;4.20;;
58101;SDS011;52034;51.926;6.320;2022-08-03T02:08:51;9.07;;;4.60;;
58101;SDS011;52034;51.926;6.320;2022-08-03T02:10:12;9.57;;;4.53;;
58101;SDS011;52034;51.926;6.320;2022-08-03T02:11:31;11.18;;;4.07;;
58101;SDS011;52034;51.926;6.320;2022-08-03T02:12:51;10.23;;;4.95;;
58101;SDS011;52034;51.926;6.320;2022-08-03T02:14:11;11.45;;;5.13;;
58101;SDS011;52034;51.926;6.320;2022-08-03T02:15:32;7.32;;;5.00;;
58101;SDS011;52034;51.926;6.320;2022-08-03T02:16:52;9.80;;;4.75;;
58101;SDS011;52034;51.926;6.320;2022-08-03T02:18:12;7.72;;;4.28;;
58101;SDS011;52034;51.926;6.320;2022-08-03T02:19:32;11.20;;;4.57;;
58101;SDS011;52034;51.926;6.320;2022-08-03T02:20:52;9.98;;;5.25;;
58101;SDS011;52034;51.926;6.320;2022-08-03T02:22:12;6.60;;;4.78;;
58101;SDS011;52034;51.926;6.320;2022-08-03T02:23:31;11.23;;;5.38;;
58101;SDS011;52034;51.926;6.320;2022-08-03T02:24:50;7.53;;;5.05;;
58101;SDS011;52034;51.926;6.320;2022-08-03T02:26:10;8.05;;;4.90;;
58101;SDS011;52034;51.926;6.320;2022-08-03T02:27:33;10.40;;;5.32;;
58101;SDS011;52034;51.926;6.320;2022-08-03T02:28:53;10.60;;;5.13;;
58101;SDS011;52034;51.926;6.320;2022-08-03T02:30:13;8.45;;;5.40;;
58101;SDS011;52034;51.926;6.320;2022-08-03T02:31:33;10.82;;;5.70;;
58101;SDS011;52034;51.926;6.320;2022-08-03T02:32:55;8.73;;;5.05;;
58101;SDS011;52034;51.926;6.320;2022-08-03T02:34:15;9.93;;;4.93;;
58101;SDS011;52034;51.926;6.320;2022-08-03T02:35:36;9.65;;;4.47;;
58101;SDS011;52034;51.926;6.320;2022-08-03T02:36:57;8.18;;;4.82;;
58101;SDS011;52034;51.926;6.320;2022-08-03T02:38:22;11.10;;;5.38;;
58101;SDS011;52034;51.926;6.320;2022-08-03T02:39:44;10.18;;;5.38;;
58101;SDS011;52034;51.926;6.320;2022-08-03T02:41:06;9.50;;;5.07;;
58101;SDS011;52034;51.926;6.320;2022-08-03T02:42:26;6.95;;;5.15;;
58101;SDS011;52034;51.926;6.320;2022-08-03T02:43:47;10.93;;;5.28;;
58101;SDS011;52034;51.926;6.320;2022-08-03T02:45:08;11.93;;;5.03;;
58101;SDS011;52034;51.926;6.320;2022-08-03T02:46:32;6.18;;;5.00;;
58101;SDS011;52034;51.926;6.320;2022-08-03T02:47:54;8.32;;;5.05;;
58101;SDS011;52034;51.926;6.320;2022-08-03T02:49:15;8.38;;;4.97;;
58101;SDS011;52034;51.926;6.320;2022-08-03T02:50:36;9.15;;;5.30;;
58101;SDS011;52034;51.926;6.320;2022-08-03T02:51:56;10.40;;;6.00;;
58101;SDS011;52034;51.926;6.320;2022-08-03T02:53:16;9.73;;;5.30;;
58101;SDS011;52034;51.926;6.320;2022-08-03T02:54:36;6.93;;;5.00;;
58101;SDS011;52034;51.926;6.320;2022-08-03T02:55:56;11.60;;;5.13;;
58101;SDS011;52034;51.926;6.320;2022-08-03T02:57:16;10.18;;;5.20;;
58101;SDS011;52034;51.926;6.320;2022-08-03T02:58:37;8.65;;;5.00;;
58101;SDS011;52034;51.926;6.320;2022-08-03T02:59:57;10.05;;;5.07;;
58101;SDS011;52034;51.926;6.320;2022-08-03T03:01:23;9.90;;;4.95;;
58101;SDS011;52034;51.926;6.320;2022-08-03T03:02:43;8.30;;;4.95;;
58101;SDS011;52034;51.926;6.320;2022-08-03T03:04:02;9.18;;;5.18;;
58101;SDS011;52034;51.926;6.320;2022-08-03T03:05:22;9.75;;;5.00;;
58101;SDS011;52034;51.926;6.320;2022-08-03T03:06:41;7.10;;;4.95;;
58101;SDS011;52034;51.926;6.320;2022-08-03T03:08:00;8.15;;;4.53;;
58101;SDS011;52034;51.926;6.320;2022-08-03T03:09:20;10.98;;;4.63;;
58101;SDS011;52034;51.926;6.320;2022-08-03T03:10:39;8.35;;;4.47;;
58101;SDS011;52034;51.926;6.320;2022-08-03T03:11:58;5.05;;;4.25;;
58101;SDS011;52034;51.926;6.320;2022-08-03T03:13:19;10.15;;;4.82;;
58101;SDS011;52034;51.926;6.320;2022-08-03T03:14:39;6.72;;;4.85;;
58101;SDS011;52034;51.926;6.320;2022-08-03T03:16:01;10.15;;;5.10;;
58101;SDS011;52034;51.926;6.320;2022-08-03T03:17:21;9.15;;;4.65;;
58101;SDS011;52034;51.926;6.320;2022-08-03T03:18:42;9.05;;;4.72;;
58101;SDS011;52034;51.926;6.320;2022-08-03T03:20:02;8.23;;;5.10;;
58101;SDS011;52034;51.926;6.320;2022-08-03T03:21:22;8.40;;;4.65;;
58101;SDS011;52034;51.926;6.320;2022-08-03T03:22:41;9.18;;;4.55;;
58101;SDS011;52034;51.926;6.320;2022-08-03T03:24:01;10.80;;;4.32;;
58101;SDS011;52034;51.926;6.320;2022-08-03T03:25:20;10.23;;;4.28;;
58101;SDS011;52034;51.926;6.320;2022-08-03T03:26:41;9.18;;;4.55;;
58101;SDS011;52034;51.926;6.320;2022-08-03T03:28:01;13.07;;;4.57;;
58101;SDS011;52034;51.926;6.320;2022-08-03T03:29:20;6.97;;;4.60;;
58101;SDS011;52034;51.926;6.320;2022-08-03T03:30:40;8.73;;;4.50;;
58101;SDS011;52034;51.926;6.320;2022-08-03T03:31:59;9.13;;;4.13;;
58101;SDS011;52034;51.926;6.320;2022-08-03T03:33:19;9.20;;;4.40;;
58101;SDS011;52034;51.926;6.320;2022-08-03T03:34:39;10.00;;;4.22;;
58101;SDS011;52034;51.926;6.320;2022-08-03T03:35:59;8.68;;;4.38;;
58101;SDS011;52034;51.926;6.320;2022-08-03T03:37:18;7.47;;;4.70;;
58101;SDS011;52034;51.926;6.320;2022-08-03T03:38:37;7.30;;;4.00;;
58101;SDS011;52034;51.926;6.320;2022-08-03T03:39:56;9.15;;;4.55;;
58101;SDS011;52034;51.926;6.320;2022-08-03T03:41:16;7.72;;;4.45;;
58101;SDS011;52034;51.926;6.320;2022-08-03T03:42:35;12.68;;;4.60;;
58101;SDS011;52034;51.926;6.320;2022-08-03T03:43:56;6.60;;;4.65;;
58101;SDS011;52034;51.926;6.320;2022-08-03T03:45:15;7.65;;;4.10;;
58101;SDS011;52034;51.926;6.320;2022-08-03T03:46:34;8.85;;;4.70;;
58101;SDS011;52034;51.926;6.320;2022-08-03T03:47:53;7.70;;;4.18;;
58101;SDS011;52034;51.926;6.320;2022-08-03T03:49:12;8.50;;;4.13;;
58101;SDS011;52034;51.926;6.320;2022-08-03T03:50:33;7.40;;;3.38;;
58101;SDS011;52034;51.926;6.320;2022-08-03T03:51:53;6.45;;;4.30;;
58101;SDS011;52034;51.926;6.320;2022-08-03T03:53:13;7.68;;;3.95;;
58101;SDS011;52034;51.926;6.320;2022-08-03T03:54:39;8.82;;;3.78;;
58101;SDS011;52034;51.926;6.320;2022-08-03T03:56:01;10.32;;;4.78;;
58101;SDS011;52034;51.926;6.320;2022-08-03T03:57:20;6.88;;;4.22;;
58101;SDS011;52034;51.926;6.320;2022-08-03T03:58:39;8.65;;;4.30;;
58101;SDS011;52034;51.926;6.320;2022-08-03T03:59:58;6.90;;;4.20;;
58101;SDS011;52034;51.926;6.320;2022-08-03T04:01:18;6.32;;;3.67;;
58101;SDS011;52034;51.926;6.320;2022-08-03T04:02:37;9.52;;;4.30;;
58101;SDS011;52034;51.926;6.320;2022-08-03T04:03:57;7.22;;;4.15;;
58101;SDS011;52034;51.926;6.320;2022-08-03T04:05:36;6.03;;;4.35;;
58101;SDS011;52034;51.926;6.320;2022-08-03T04:07:14;8.43;;;4.20;;
58101;SDS011;52034;51.926;6.320;2022-08-03T04:08:51;11.27;;;4.50;;
58101;SDS011;52034;51.926;6.320;2022-08-03T04:10:36;8.80;;;4.35;;
58101;SDS011;52034;51.926;6.320;2022-08-03T04:12:15;7.45;;;3.92;;
58101;SDS011;52034;51.926;6.320;2022-08-03T04:14:18;8.18;;;4.63;;
58101;SDS011;52034;51.926;6.320;2022-08-03T04:15:34;9.90;;;4.15;;
58101;SDS011;52034;51.926;6.320;2022-08-03T04:17:01;10.57;;;4.50;;
58101;SDS011;52034;51.926;6.320;2022-08-03T04:18:21;8.60;;;4.25;;
58101;SDS011;52034;51.926;6.320;2022-08-03T04:19:49;7.97;;;4.55;;
58101;SDS011;52034;51.926;6.320;2022-08-03T04:21:11;7.60;;;4.80;;
58101;SDS011;52034;51.926;6.320;2022-08-03T04:22:30;6.03;;;3.78;;
58101;SDS011;52034;51.926;6.320;2022-08-03T04:23:52;7.60;;;4.18;;
58101;SDS011;52034;51.926;6.320;2022-08-03T04:25:13;8.88;;;4.13;;
58101;SDS011;52034;51.926;6.320;2022-08-03T04:26:36;13.55;;;4.57;;
58101;SDS011;52034;51.926;6.320;2022-08-03T04:27:58;12.87;;;4.87;;
58101;SDS011;52034;51.926;6.320;2022-08-03T04:29:18;17.63;;;4.55;;
58101;SDS011;52034;51.926;6.320;2022-08-03T04:30:38;8.68;;;4.20;;
58101;SDS011;52034;51.926;6.320;2022-08-03T04:32:05;7.72;;;3.85;;
58101;SDS011;52034;51.926;6.320;2022-08-03T04:33:25;9.50;;;4.05;;
58101;SDS011;52034;51.926;6.320;2022-08-03T04:34:44;5.63;;;3.80;;
58101;SDS011;52034;51.926;6.320;2022-08-03T04:36:05;12.93;;;4.47;;
58101;SDS011;52034;51.926;6.320;2022-08-03T04:37:30;10.27;;;4.38;;
58101;SDS011;52034;51.926;6.320;2022-08-03T04:39:02;10.82;;;4.00;;
58101;SDS011;52034;51.926;6.320;2022-08-03T04:40:29;8.30;;;3.80;;
58101;SDS011;52034;51.926;6.320;2022-08-03T04:41:56;9.65;;;4.30;;
58101;SDS011;52034;51.926;6.320;2022-08-03T04:43:17;9.63;;;4.72;;
58101;SDS011;52034;51.926;6.320;2022-08-03T04:44:39;6.38;;;4.20;;
58101;SDS011;52034;51.926;6.320;2022-08-03T04:46:00;7.85;;;4.38;;
58101;SDS011;52034;51.926;6.320;2022-08-03T04:47:19;7.60;;;4.50;;
58101;SDS011;52034;51.926;6.320;2022-08-03T04:48:38;8.20;;;4.05;;
58101;SDS011;52034;51.926;6.320;2022-08-03T04:49:59;8.98;;;4.95;;
58101;SDS011;52034;51.926;6.320;2022-08-03T04:51:20;7.40;;;4.32;;
58101;SDS011;52034;51.926;6.320;2022-08-03T04:52:38;8.75;;;4.18;;
58101;SDS011;52034;51.926;6.320;2022-08-03T04:53:57;13.43;;;5.35;;
58101;SDS011;52034;51.926;6.320;2022-08-03T04:55:29;11.50;;;4.45;;
58101;SDS011;52034;51.926;6.320;2022-08-03T04:56:50;9.18;;;4.47;;
58101;SDS011;52034;51.926;6.320;2022-08-03T04:58:10;11.25;;;4.82;;
58101;SDS011;52034;51.926;6.320;2022-08-03T04:59:30;9.32;;;4.63;;
58101;SDS011;52034;51.926;6.320;2022-08-03T05:00:49;11.15;;;4.90;;
58101;SDS011;52034;51.926;6.320;2022-08-03T05:02:09;11.15;;;4.90;;
58101;SDS011;52034;51.926;6.320;2022-08-03T05:03:29;12.13;;;4.70;;
58101;SDS011;52034;51.926;6.320;2022-08-03T05:04:49;9.13;;;4.00;;
58101;SDS011;52034;51.926;6.320;2022-08-03T05:06:08;11.85;;;4.88;;
58101;SDS011;52034;51.926;6.320;2022-08-03T05:07:27;12.25;;;4.30;;
58101;SDS011;52034;51.926;6.320;2022-08-03T05:08:46;11.07;;;5.07;;
58101;SDS011;52034;51.926;6.320;2022-08-03T05:10:06;11.18;;;4.97;;
58101;SDS011;52034;51.926;6.320;2022-08-03T05:11:25;10.95;;;4.93;;
58101;SDS011;52034;51.926;6.320;2022-08-03T05:12:44;8.68;;;4.00;;
58101;SDS011;52034;51.926;6.320;2022-08-03T05:14:05;7.78;;;4.97;;
58101;SDS011;52034;51.926;6.320;2022-08-03T05:15:25;12.75;;;4.45;;
58101;SDS011;52034;51.926;6.320;2022-08-03T05:16:44;10.60;;;5.47;;
58101;SDS011;52034;51.926;6.320;2022-08-03T05:18:03;11.75;;;5.32;;
58101;SDS011;52034;51.926;6.320;2022-08-03T05:19:22;10.77;;;4.70;;
58101;SDS011;52034;51.926;6.320;2022-08-03T05:20:41;11.10;;;5.05;;
58101;SDS011;52034;51.926;6.320;2022-08-03T05:22:00;11.45;;;4.72;;
58101;SDS011;52034;51.926;6.320;2022-08-03T05:23:19;11.27;;;5.13;;
58101;SDS011;52034;51.926;6.320;2022-08-03T05:24:38;12.30;;;5.18;;
58101;SDS011;52034;51.926;6.320;2022-08-03T05:25:57;10.00;;;5.25;;
58101;SDS011;52034;51.926;6.320;2022-08-03T05:27:17;10.13;;;5.30;;
58101;SDS011;52034;51.926;6.320;2022-08-03T05:28:39;11.20;;;4.93;;
58101;SDS011;52034;51.926;6.320;2022-08-03T05:29:58;10.88;;;5.18;;
58101;SDS011;52034;51.926;6.320;2022-08-03T05:31:18;14.15;;;5.40;;
58101;SDS011;52034;51.926;6.320;2022-08-03T05:32:37;13.02;;;5.28;;
58101;SDS011;52034;51.926;6.320;2022-08-03T05:33:56;13.82;;;5.10;;
58101;SDS011;52034;51.926;6.320;2022-08-03T05:35:15;11.70;;;5.32;;
58101;SDS011;52034;51.926;6.320;2022-08-03T05:36:34;12.85;;;5.57;;
58101;SDS011;52034;51.926;6.320;2022-08-03T05:37:54;12.80;;;5.60;;
58101;SDS011;52034;51.926;6.320;2022-08-03T05:39:13;13.80;;;5.80;;
58101;SDS011;52034;51.926;6.320;2022-08-03T05:40:32;9.05;;;5.35;;
58101;SDS011;52034;51.926;6.320;2022-08-03T05:41:51;7.75;;;4.95;;
58101;SDS011;52034;51.926;6.320;2022-08-03T05:43:10;12.32;;;6.10;;
58101;SDS011;52034;51.926;6.320;2022-08-03T05:44:30;11.20;;;5.60;;
58101;SDS011;52034;51.926;6.320;2022-08-03T05:45:49;14.77;;;5.90;;
58101;SDS011;52034;51.926;6.320;2022-08-03T05:47:08;8.20;;;4.75;;
58101;SDS011;52034;51.926;6.320;2022-08-03T05:48:27;9.25;;;5.03;;
58101;SDS011;52034;51.926;6.320;2022-08-03T05:49:47;10.75;;;5.38;;
58101;SDS011;52034;51.926;6.320;2022-08-03T05:51:06;8.88;;;5.75;;
58101;SDS011;52034;51.926;6.320;2022-08-03T05:52:28;11.25;;;5.60;;
58101;SDS011;52034;51.926;6.320;2022-08-03T05:53:47;15.05;;;6.43;;
58101;SDS011;52034;51.926;6.320;2022-08-03T05:55:07;11.93;;;6.50;;
58101;SDS011;52034;51.926;6.320;2022-08-03T05:56:26;11.07;;;5.70;;
58101;SDS011;52034;51.926;6.320;2022-08-03T05:57:46;13.07;;;6.30;;
58101;SDS011;52034;51.926;6.320;2022-08-03T05:59:05;10.63;;;5.57;;
58101;SDS011;52034;51.926;6.320;2022-08-03T06:00:25;10.52;;;6.47;;
58101;SDS011;52034;51.926;6.320;2022-08-03T06:01:44;10.77;;;6.45;;
58101;SDS011;52034;51.926;6.320;2022-08-03T06:03:03;11.55;;;6.22;;
58101;SDS011;52034;51.926;6.320;2022-08-03T06:04:22;9.45;;;6.18;;
58101;SDS011;52034;51.926;6.320;2022-08-03T06:05:41;14.63;;;6.50;;
58101;SDS011;52034;51.926;6.320;2022-08-03T06:07:00;16.48;;;6.80;;
58101;SDS011;52034;51.926;6.320;2022-08-03T06:08:19;9.55;;;5.80;;
58101;SDS011;52034;51.926;6.320;2022-08-03T06:09:39;10.20;;;6.07;;
58101;SDS011;52034;51.926;6.320;2022-08-03T06:10:59;12.70;;;6.60;;
58101;SDS011;52034;51.926;6.320;2022-08-03T06:12:19;18.58;;;7.75;;
58101;SDS011;52034;51.926;6.320;2022-08-03T06:13:38;10.43;;;6.18;;
58101;SDS011;52034;51.926;6.320;2022-08-03T06:14:57;11.18;;;6.70;;
58101;SDS011;52034;51.926;6.320;2022-08-03T06:16:16;12.48;;;6.43;;
58101;SDS011;52034;51.926;6.320;2022-08-03T06:17:42;15.23;;;6.18;;
58101;SDS011;52034;51.926;6.320;2022-08-03T06:19:02;18.48;;;7.30;;
58101;SDS011;52034;51.926;6.320;2022-08-03T06:20:21;12.00;;;6.05;;
58101;SDS011;52034;51.926;6.320;2022-08-03T06:21:40;14.77;;;6.93;;
58101;SDS011;52034;51.926;6.320;2022-08-03T06:22:59;14.75;;;5.57;;
58101;SDS011;52034;51.926;6.320;2022-08-03T06:24:18;11.25;;;5.15;;
58101;SDS011;52034;51.926;6.320;2022-08-03T06:25:38;11.10;;;4.97;;
58101;SDS011;52034;51.926;6.320;2022-08-03T06:26:57;11.52;;;4.70;;
58101;SDS011;52034;51.926;6.320;2022-08-03T06:28:16;13.95;;;5.90;;
58101;SDS011;52034;51.926;6.320;2022-08-03T06:29:36;8.15;;;4.93;;
58101;SDS011;52034;51.926;6.320;2022-08-03T06:30:55;10.60;;;4.40;;
58101;SDS011;52034;51.926;6.320;2022-08-03T06:32:14;12.43;;;5.15;;
58101;SDS011;52034;51.926;6.320;2022-08-03T06:33:34;11.38;;;5.15;;
58101;SDS011;52034;51.926;6.320;2022-08-03T06:34:53;9.80;;;5.05;;
58101;SDS011;52034;51.926;6.320;2022-08-03T06:36:12;13.88;;;5.13;;
58101;SDS011;52034;51.926;6.320;2022-08-03T06:37:40;12.85;;;5.30;;
58101;SDS011;52034;51.926;6.320;2022-08-03T06:39:03;12.05;;;4.88;;
58101;SDS011;52034;51.926;6.320;2022-08-03T06:40:23;8.00;;;4.72;;
58101;SDS011;52034;51.926;6.320;2022-08-03T06:41:47;11.45;;;5.00;;
58101;SDS011;52034;51.926;6.320;2022-08-03T06:43:06;7.63;;;3.90;;
58101;SDS011;52034;51.926;6.320;2022-08-03T06:44:26;8.15;;;3.83;;
58101;SDS011;52034;51.926;6.320;2022-08-03T06:45:45;14.68;;;4.28;;
58101;SDS011;52034;51.926;6.320;2022-08-03T06:47:04;9.73;;;4.50;;
58101;SDS011;52034;51.926;6.320;2022-08-03T06:48:23;6.75;;;4.07;;
58101;SDS011;52034;51.926;6.320;2022-08-03T06:49:42;11.77;;;4.68;;
58101;SDS011;52034;51.926;6.320;2022-08-03T06:51:01;4.05;;;2.38;;
58101;SDS011;52034;51.926;6.320;2022-08-03T06:52:20;9.43;;;3.10;;
58101;SDS011;52034;51.926;6.320;2022-08-03T06:53:40;8.95;;;3.22;;
58101;SDS011;52034;51.926;6.320;2022-08-03T06:54:59;4.10;;;2.33;;
58101;SDS011;52034;51.926;6.320;2022-08-03T06:56:18;6.13;;;2.70;;
58101;SDS011;52034;51.926;6.320;2022-08-03T06:57:37;3.67;;;2.72;;
58101;SDS011;52034;51.926;6.320;2022-08-03T06:58:57;6.57;;;2.88;;
58101;SDS011;52034;51.926;6.320;2022-08-03T07:00:16;10.75;;;2.55;;
58101;SDS011;52034;51.926;6.320;2022-08-03T07:01:35;8.85;;;2.97;;
58101;SDS011;52034;51.926;6.320;2022-08-03T07:02:54;7.00;;;2.75;;
58101;SDS011;52034;51.926;6.320;2022-08-03T07:04:13;8.02;;;2.38;;
58101;SDS011;52034;51.926;6.320;2022-08-03T07:05:33;6.63;;;2.40;;
58101;SDS011;52034;51.926;6.320;2022-08-03T07:06:53;5.15;;;2.00;;
58101;SDS011;52034;51.926;6.320;2022-08-03T07:08:12;4.75;;;1.90;;
58101;SDS011;52034;51.926;6.320;2022-08-03T07:09:32;6.07;;;2.30;;
58101;SDS011;52034;51.926;6.320;2022-08-03T07:10:51;5.03;;;2.03;;
58101;SDS011;52034;51.926;6.320;2022-08-03T07:12:10;7.32;;;2.25;;
58101;SDS011;52034;51.926;6.320;2022-08-03T07:13:30;6.50;;;2.20;;
58101;SDS011;52034;51.926;6.320;2022-08-03T07:14:49;4.47;;;1.92;;
58101;SDS011;52034;51.926;6.320;2022-08-03T07:16:08;5.43;;;2.15;;
58101;SDS011;52034;51.926;6.320;2022-08-03T07:17:28;9.20;;;1.98;;
58101;SDS011;52034;51.926;6.320;2022-08-03T07:18:48;5.78;;;2.00;;
58101;SDS011;52034;51.926;6.320;2022-08-03T07:20:07;8.15;;;2.10;;
58101;SDS011;52034;51.926;6.320;2022-08-03T07:21:26;5.32;;;1.05;;
58101;SDS011;52034;51.926;6.320;2022-08-03T07:22:46;6.07;;;1.85;;
58101;SDS011;52034;51.926;6.320;2022-08-03T07:24:05;4.57;;;1.55;;
58101;SDS011;52034;51.926;6.320;2022-08-03T07:25:24;3.42;;;1.50;;
58101;SDS011;52034;51.926;6.320;2022-08-03T07:26:44;5.15;;;1.75;;
58101;SDS011;52034;51.926;6.320;2022-08-03T07:28:03;4.75;;;1.08;;
58101;SDS011;52034;51.926;6.320;2022-08-03T07:29:22;2.03;;;1.20;;
58101;SDS011;52034;51.926;6.320;2022-08-03T07:30:41;8.55;;;1.55;;
58101;SDS011;52034;51.926;6.320;2022-08-03T07:32:01;7.40;;;1.50;;
58101;SDS011;52034;51.926;6.320;2022-08-03T07:33:20;7.35;;;1.60;;
58101;SDS011;52034;51.926;6.320;2022-08-03T07:34:39;6.93;;;1.92;;
58101;SDS011;52034;51.926;6.320;2022-08-03T07:35:58;8.73;;;1.95;;
58101;SDS011;52034;51.926;6.320;2022-08-03T07:37:17;4.57;;;2.03;;
58101;SDS011;52034;51.926;6.320;2022-08-03T07:38:36;5.72;;;2.05;;
58101;SDS011;52034;51.926;6.320;2022-08-03T07:39:55;9.35;;;2.50;;
58101;SDS011;52034;51.926;6.320;2022-08-03T07:41:14;10.55;;;1.85;;
58101;SDS011;52034;51.926;6.320;2022-08-03T07:42:34;10.05;;;2.47;;
58101;SDS011;52034;51.926;6.320;2022-08-03T07:43:53;3.45;;;1.17;;
58101;SDS011;52034;51.926;6.320;2022-08-03T07:45:12;3.75;;;2.00;;
58101;SDS011;52034;51.926;6.320;2022-08-03T07:46:31;6.38;;;2.17;;
58101;SDS011;52034;51.926;6.320;2022-08-03T07:47:50;10.63;;;2.00;;
58101;SDS011;52034;51.926;6.320;2022-08-03T07:49:10;6.00;;;2.00;;
58101;SDS011;52034;51.926;6.320;2022-08-03T07:50:29;8.35;;;1.95;;
58101;SDS011;52034;51.926;6.320;2022-08-03T07:51:48;4.97;;;1.60;;
58101;SDS011;52034;51.926;6.320;2022-08-03T07:53:27;5.45;;;1.70;;
58101;SDS011;52034;51.926;6.320;2022-08-03T07:54:46;5.90;;;2.28;;
58101;SDS011;52034;51.926;6.320;2022-08-03T07:56:05;2.33;;;1.25;;
58101;SDS011;52034;51.926;6.320;2022-08-03T07:57:25;7.95;;;1.65;;
58101;SDS011;52034;51.926;6.320;2022-08-03T07:58:44;4.82;;;1.88;;
58101;SDS011;52034;51.926;6.320;2022-08-03T08:00:04;11.68;;;2.20;;
58101;SDS011;52034;51.926;6.320;2022-08-03T08:01:31;12.35;;;2.22;;
58101;SDS011;52034;51.926;6.320;2022-08-03T08:02:53;10.23;;;2.03;;
58101;SDS011;52034;51.926;6.320;2022-08-03T08:04:12;7.78;;;1.98;;
58101;SDS011;52034;51.926;6.320;2022-08-03T08:05:32;6.32;;;1.70;;
58101;SDS011;52034;51.926;6.320;2022-08-03T08:06:51;11.85;;;2.88;;
58101;SDS011;52034;51.926;6.320;2022-08-03T08:08:11;7.28;;;1.90;;
58101;SDS011;52034;51.926;6.320;2022-08-03T08:09:30;10.20;;;2.28;;
58101;SDS011;52034;51.926;6.320;2022-08-03T08:10:49;6.53;;;2.15;;
58101;SDS011;52034;51.926;6.320;2022-08-03T08:12:08;9.88;;;2.20;;